createdAt,value
2019-02-15T00:00:41.196Z,16.08
2019-02-15T00:01:44.912Z,16.08
2019-02-15T00:02:47.132Z,16.09
2019-02-15T00:03:49.358Z,16.09
2019-02-15T00:04:51.580Z,16.09
2019-02-15T00:05:53.818Z,16.09
2019-02-15T00:06:56.021Z,16.11
2019-02-15T00:07:58.244Z,16.11
2019-02-15T00:09:00.509Z,16.11
2019-02-15T00:10:03.711Z,16.09
2019-02-15T00:11:05.932Z,16.10
2019-02-15T00:12:08.144Z,16.10
2019-02-15T00:13:13.634Z,16.11
2019-02-15T00:14:14.268Z,16.10
2019-02-15T00:15:16.508Z,16.11
2019-02-15T00:16:18.699Z,16.11
2019-02-15T00:17:48.734Z,16.10
2019-02-15T00:19:08.458Z,16.10
2019-02-15T00:20:15.507Z,16.11
2019-02-15T00:21:19.910Z,16.12
2019-02-15T00:22:22.139Z,16.11
2019-02-15T00:23:24.356Z,16.12
2019-02-15T00:24:26.567Z,16.12
2019-02-15T00:25:28.891Z,16.13
2019-02-15T00:26:31.247Z,16.12
2019-02-15T00:27:33.413Z,16.12
2019-02-15T00:28:35.615Z,16.11
2019-02-15T00:29:37.772Z,16.11
2019-02-15T00:30:40.008Z,16.11
2019-02-15T00:31:42.209Z,16.12
2019-02-15T00:32:44.419Z,16.11
2019-02-15T00:33:46.630Z,16.12
2019-02-15T00:34:48.861Z,16.11
2019-02-15T00:35:51.086Z,16.11
2019-02-15T00:36:56.361Z,16.11
2019-02-15T00:37:58.591Z,16.11
2019-02-15T00:39:00.794Z,16.12
2019-02-15T00:40:02.957Z,16.12
2019-02-15T00:41:05.149Z,16.12
2019-02-15T00:42:07.482Z,16.11
2019-02-15T00:43:09.692Z,16.12
2019-02-15T00:44:11.930Z,16.11
2019-02-15T00:45:15.765Z,16.12
2019-02-15T00:46:52.071Z,16.11
2019-02-15T00:47:59.028Z,16.12
2019-02-15T00:49:01.992Z,16.12
2019-02-15T00:50:32.287Z,16.11
2019-02-15T00:51:55.995Z,16.12
2019-02-15T00:53:16.081Z,16.13
2019-02-15T00:54:26.912Z,16.14
2019-02-15T00:55:46.717Z,16.13
2019-02-15T00:57:13.201Z,16.12
2019-02-15T00:58:25.187Z,16.13
2019-02-15T00:59:49.269Z,16.12
2019-02-15T01:01:00.155Z,16.13
2019-02-15T01:02:30.293Z,16.12
2019-02-15T01:03:57.407Z,16.12
2019-02-15T01:05:33.165Z,16.13
2019-02-15T01:06:59.861Z,16.13
2019-02-15T01:08:24.064Z,16.13
2019-02-15T01:09:34.375Z,16.13
2019-02-15T01:11:04.878Z,16.12
2019-02-15T01:12:14.182Z,16.12
2019-02-15T01:13:19.649Z,16.13
2019-02-15T01:14:21.946Z,16.13
2019-02-15T01:15:24.100Z,16.13
2019-02-15T01:16:26.347Z,16.12
2019-02-15T01:17:28.563Z,16.12
2019-02-15T01:18:30.882Z,16.13
2019-02-15T01:19:33.066Z,16.12
2019-02-15T01:20:35.264Z,16.13
2019-02-15T01:21:37.473Z,16.13
2019-02-15T01:22:39.816Z,16.13
2019-02-15T01:23:42.019Z,16.13
2019-02-15T01:24:44.218Z,16.12
2019-02-15T01:25:56.830Z,16.12
2019-02-15T01:27:02.243Z,16.12
2019-02-15T01:28:16.410Z,16.12
2019-02-15T01:29:55.642Z,16.14
2019-02-15T01:31:15.283Z,16.13
2019-02-15T01:32:39.655Z,16.11
2019-02-15T01:33:58.507Z,16.11
2019-02-15T01:35:17.308Z,16.10
2019-02-15T01:36:40.882Z,16.10
2019-02-15T01:38:01.002Z,16.12
2019-02-15T01:39:31.555Z,16.12
2019-02-15T01:40:52.743Z,16.11
2019-02-15T01:42:04.093Z,16.11
2019-02-15T01:43:28.053Z,16.11
2019-02-15T01:44:47.101Z,16.10
2019-02-15T01:46:19.867Z,16.10
2019-02-15T01:47:31.662Z,16.11
2019-02-15T01:48:33.893Z,16.10
2019-02-15T01:49:36.108Z,16.10
2019-02-15T01:50:38.317Z,16.12
2019-02-15T01:51:40.644Z,16.10
2019-02-15T01:52:45.167Z,16.10
2019-02-15T01:53:48.364Z,16.10
2019-02-15T01:54:50.569Z,16.10
2019-02-15T01:55:52.773Z,16.11
2019-02-15T01:56:54.980Z,16.10
2019-02-15T01:57:57.191Z,16.09
2019-02-15T01:58:59.402Z,16.11
2019-02-15T02:00:01.531Z,16.11
2019-02-15T02:01:04.216Z,16.10
2019-02-15T02:02:06.436Z,16.11
2019-02-15T02:03:08.712Z,16.11
2019-02-15T02:04:10.904Z,16.11
2019-02-15T02:05:13.103Z,16.11
2019-02-15T02:06:17.344Z,16.11
2019-02-15T02:07:19.550Z,16.10
2019-02-15T02:08:24.858Z,16.11
2019-02-15T02:09:27.086Z,16.11
2019-02-15T02:10:29.959Z,16.10
2019-02-15T02:11:32.184Z,16.10
2019-02-15T02:12:34.487Z,16.11
2019-02-15T02:13:36.687Z,16.11
2019-02-15T02:14:38.940Z,16.10
2019-02-15T02:15:41.150Z,16.10
2019-02-15T02:16:43.399Z,16.10
2019-02-15T02:17:45.590Z,16.11
2019-02-15T02:18:47.730Z,16.10
2019-02-15T02:19:50.002Z,16.10
2019-02-15T02:20:52.204Z,16.10
2019-02-15T02:21:54.401Z,16.09
2019-02-15T02:22:56.602Z,16.09
2019-02-15T02:23:58.954Z,16.10
2019-02-15T02:25:01.174Z,16.10
2019-02-15T02:26:03.382Z,16.09
2019-02-15T02:27:05.575Z,16.09
2019-02-15T02:28:07.792Z,16.08
2019-02-15T02:29:10.000Z,16.10
2019-02-15T02:30:12.214Z,16.10
2019-02-15T02:31:14.419Z,16.09
2019-02-15T02:32:16.629Z,16.10
2019-02-15T02:33:20.038Z,16.08
2019-02-15T02:34:22.220Z,16.08
2019-02-15T02:35:24.463Z,16.09
2019-02-15T02:36:26.582Z,16.09
2019-02-15T02:37:28.721Z,16.08
2019-02-15T02:38:30.930Z,16.10
2019-02-15T02:39:33.146Z,16.09
2019-02-15T02:40:35.389Z,16.09
2019-02-15T02:41:37.590Z,16.08
2019-02-15T02:42:39.800Z,16.08
2019-02-15T02:43:43.198Z,16.09
2019-02-15T02:44:45.613Z,16.09
2019-02-15T02:45:47.857Z,16.09
2019-02-15T02:46:52.819Z,16.08
2019-02-15T02:47:55.029Z,16.08
2019-02-15T02:48:57.213Z,16.08
2019-02-15T02:49:59.435Z,16.08
2019-02-15T02:51:01.655Z,16.08
2019-02-15T02:52:03.869Z,16.10
2019-02-15T02:53:06.067Z,16.09
2019-02-15T02:54:08.266Z,16.08
2019-02-15T02:55:10.645Z,16.07
2019-02-15T02:56:12.986Z,16.08
2019-02-15T02:57:15.260Z,16.08
2019-02-15T02:58:17.457Z,16.09
2019-02-15T02:59:19.670Z,16.07
2019-02-15T03:00:21.932Z,16.07
2019-02-15T03:01:24.154Z,16.07
2019-02-15T03:02:26.352Z,16.08
2019-02-15T03:03:28.548Z,16.08
2019-02-15T03:04:31.850Z,16.07
2019-02-15T03:05:34.045Z,16.08
2019-02-15T03:06:36.276Z,16.06
2019-02-15T03:07:38.482Z,16.06
2019-02-15T03:08:40.710Z,16.07
2019-02-15T03:09:42.945Z,16.08
2019-02-15T03:10:45.148Z,16.08
2019-02-15T03:11:47.363Z,16.07
2019-02-15T03:12:49.580Z,16.07
2019-02-15T03:13:51.794Z,16.07
2019-02-15T03:14:54.001Z,16.06
2019-02-15T03:15:56.213Z,16.07
2019-02-15T03:16:58.417Z,16.07
2019-02-15T03:18:00.554Z,16.08
2019-02-15T03:19:02.758Z,16.07
2019-02-15T03:20:05.052Z,16.08
2019-02-15T03:21:07.287Z,16.08
2019-02-15T03:22:09.487Z,16.08
2019-02-15T03:23:11.677Z,16.08
2019-02-15T03:24:15.973Z,16.08
2019-02-15T03:25:18.183Z,16.07
2019-02-15T03:26:20.403Z,16.06
2019-02-15T03:27:22.896Z,16.07
2019-02-15T03:28:25.026Z,16.08
2019-02-15T03:29:30.067Z,16.08
2019-02-15T03:30:34.266Z,16.07
2019-02-15T03:31:36.141Z,16.08
2019-02-15T03:32:38.461Z,16.08
2019-02-15T03:33:40.655Z,16.07
2019-02-15T03:34:42.865Z,16.07
2019-02-15T03:36:00.161Z,16.07
2019-02-15T03:37:27.649Z,16.08
2019-02-15T03:38:35.600Z,16.07
2019-02-15T03:39:41.854Z,16.08
2019-02-15T03:40:49.989Z,16.07
2019-02-15T03:41:52.136Z,16.07
2019-02-15T03:42:54.328Z,16.07
2019-02-15T03:43:56.517Z,16.07
2019-02-15T03:44:58.748Z,16.07
2019-02-15T03:46:00.929Z,16.07
2019-02-15T03:47:03.182Z,16.07
2019-02-15T03:48:05.396Z,16.08
2019-02-15T03:49:07.605Z,16.07
2019-02-15T03:50:12.201Z,16.07
2019-02-15T03:51:14.418Z,16.07
2019-02-15T03:52:16.637Z,16.07
2019-02-15T03:53:18.837Z,16.07
2019-02-15T03:54:21.035Z,16.07
2019-02-15T03:55:23.259Z,16.07
2019-02-15T03:56:26.741Z,16.07
2019-02-15T03:57:28.917Z,16.07
2019-02-15T03:58:31.104Z,16.07
2019-02-15T03:59:33.309Z,16.07
2019-02-15T04:00:35.538Z,16.07
2019-02-15T04:01:37.750Z,16.07
2019-02-15T04:02:39.957Z,16.06
2019-02-15T04:03:42.160Z,16.06
2019-02-15T04:04:44.367Z,16.06
2019-02-15T04:05:46.569Z,16.06
2019-02-15T04:06:48.813Z,16.05
2019-02-15T04:07:51.027Z,16.07
2019-02-15T04:08:53.251Z,16.06
2019-02-15T04:09:58.635Z,16.07
2019-02-15T04:11:00.857Z,16.07
2019-02-15T04:12:03.082Z,16.06
2019-02-15T04:13:05.297Z,16.07
2019-02-15T04:14:07.504Z,16.07
2019-02-15T04:15:09.699Z,16.07
2019-02-15T04:16:11.899Z,16.05
2019-02-15T04:17:16.205Z,16.07
2019-02-15T04:18:18.401Z,16.06
2019-02-15T04:19:20.619Z,16.06
2019-02-15T04:20:22.876Z,16.06
2019-02-15T04:21:25.089Z,16.06
2019-02-15T04:22:27.303Z,16.06
2019-02-15T04:23:29.484Z,16.07
2019-02-15T04:24:31.689Z,16.07
2019-02-15T04:25:33.961Z,16.07
2019-02-15T04:26:38.239Z,16.06
2019-02-15T04:27:40.492Z,16.06
2019-02-15T04:28:42.701Z,16.08
2019-02-15T04:29:44.938Z,16.07
2019-02-15T04:30:47.142Z,16.07
2019-02-15T04:31:49.347Z,16.07
2019-02-15T04:32:51.591Z,16.07
2019-02-15T04:33:53.906Z,16.08
2019-02-15T04:34:56.117Z,16.09
2019-02-15T04:36:02.529Z,16.07
2019-02-15T04:37:04.751Z,16.08
2019-02-15T04:38:07.005Z,16.09
2019-02-15T04:39:09.211Z,16.07
2019-02-15T04:40:11.416Z,16.08
2019-02-15T04:41:14.007Z,16.07
2019-02-15T04:42:16.216Z,16.07
2019-02-15T04:43:18.432Z,16.08
2019-02-15T04:44:20.620Z,16.07
2019-02-15T04:45:22.826Z,16.07
2019-02-15T04:46:25.118Z,16.08
2019-02-15T04:47:28.294Z,16.08
2019-02-15T04:48:30.533Z,16.08
2019-02-15T04:49:32.727Z,16.07
2019-02-15T04:50:34.946Z,16.05
2019-02-15T04:51:37.149Z,16.06
2019-02-15T04:52:39.543Z,16.06
2019-02-15T04:53:41.793Z,16.04
2019-02-15T04:54:43.992Z,16.04
2019-02-15T04:55:47.381Z,16.04
2019-02-15T04:56:49.520Z,16.05
2019-02-15T04:57:51.731Z,16.06
2019-02-15T04:58:53.965Z,16.05
2019-02-15T04:59:56.221Z,16.06
2019-02-15T05:01:01.159Z,16.05
2019-02-15T05:02:03.369Z,16.05
2019-02-15T05:03:05.580Z,16.04
2019-02-15T05:04:08.427Z,16.05
2019-02-15T05:05:12.395Z,16.05
2019-02-15T05:06:14.661Z,16.04
2019-02-15T05:07:16.830Z,16.05
2019-02-15T05:08:19.035Z,16.04
2019-02-15T05:09:24.286Z,16.05
2019-02-15T05:10:26.488Z,16.05
2019-02-15T05:11:28.705Z,16.05
2019-02-15T05:12:30.925Z,16.06
2019-02-15T05:13:33.126Z,16.05
2019-02-15T05:14:35.342Z,16.04
2019-02-15T05:15:37.571Z,16.03
2019-02-15T05:16:39.790Z,16.05
2019-02-15T05:17:41.995Z,16.06
2019-02-15T05:18:44.279Z,16.04
2019-02-15T05:19:46.516Z,16.05
2019-02-15T05:20:48.702Z,16.05
2019-02-15T05:21:50.919Z,16.04
2019-02-15T05:22:53.128Z,16.03
2019-02-15T05:23:56.746Z,16.04
2019-02-15T05:24:58.976Z,16.05
2019-02-15T05:26:01.188Z,16.05
2019-02-15T05:27:03.398Z,16.04
2019-02-15T05:28:05.611Z,16.04
2019-02-15T05:29:08.923Z,16.03
2019-02-15T05:30:11.145Z,16.04
2019-02-15T05:31:13.350Z,16.04
2019-02-15T05:32:17.030Z,16.05
2019-02-15T05:33:19.178Z,16.04
2019-02-15T05:34:24.459Z,16.03
2019-02-15T05:35:26.686Z,16.04
2019-02-15T05:36:31.657Z,16.04
2019-02-15T05:37:34.022Z,16.04
2019-02-15T05:38:36.228Z,16.06
2019-02-15T05:39:38.453Z,16.05
2019-02-15T05:40:40.835Z,16.05
2019-02-15T05:41:43.070Z,16.06
2019-02-15T05:42:45.267Z,16.07
2019-02-15T05:43:47.477Z,16.07
2019-02-15T05:44:49.847Z,16.06
2019-02-15T05:45:52.156Z,16.07
2019-02-15T05:46:56.074Z,16.07
2019-02-15T05:47:58.271Z,16.07
2019-02-15T05:49:00.484Z,16.08
2019-02-15T05:50:02.687Z,16.08
2019-02-15T05:51:04.875Z,16.08
2019-02-15T05:52:07.084Z,16.08
2019-02-15T05:53:09.284Z,16.09
2019-02-15T05:54:11.489Z,16.09
2019-02-15T05:55:13.816Z,16.09
2019-02-15T05:56:16.078Z,16.09
2019-02-15T05:57:18.277Z,16.10
2019-02-15T05:58:20.482Z,16.11
2019-02-15T05:59:22.688Z,16.10
2019-02-15T06:00:24.892Z,16.11
2019-02-15T06:01:30.684Z,16.10
2019-02-15T06:02:32.886Z,16.10
2019-02-15T06:03:35.131Z,16.09
2019-02-15T06:04:40.054Z,16.10
2019-02-15T06:05:42.268Z,16.08
2019-02-15T06:06:44.594Z,16.09
2019-02-15T06:07:46.830Z,16.10
2019-02-15T06:08:49.071Z,16.10
2019-02-15T06:09:51.266Z,16.08
2019-02-15T06:10:53.472Z,16.07
2019-02-15T06:11:56.021Z,16.07
2019-02-15T06:12:58.211Z,16.06
2019-02-15T06:14:00.409Z,16.05
2019-02-15T06:15:02.614Z,16.05
2019-02-15T06:16:04.811Z,16.04
2019-02-15T06:17:07.065Z,16.05
2019-02-15T06:18:09.274Z,16.04
2019-02-15T06:19:11.493Z,16.03
2019-02-15T06:20:13.695Z,16.03
2019-02-15T06:21:15.883Z,16.03
2019-02-15T06:22:18.109Z,16.05
2019-02-15T06:23:20.359Z,16.04
2019-02-15T06:24:22.524Z,16.03
2019-02-15T06:25:24.736Z,16.04
2019-02-15T06:26:27.155Z,16.04
2019-02-15T06:27:29.425Z,16.03
2019-02-15T06:28:31.626Z,16.04
2019-02-15T06:29:33.851Z,16.04
2019-02-15T06:30:36.052Z,16.04
2019-02-15T06:31:38.271Z,16.06
2019-02-15T06:32:40.518Z,16.07
2019-02-15T06:33:42.733Z,16.07
2019-02-15T06:34:44.995Z,16.08
2019-02-15T06:35:48.672Z,16.09
2019-02-15T06:36:50.876Z,16.09
2019-02-15T06:37:53.134Z,16.08
2019-02-15T06:38:55.324Z,16.08
2019-02-15T06:39:57.530Z,16.08
2019-02-15T06:40:59.722Z,16.08
2019-02-15T06:42:01.978Z,16.07
2019-02-15T06:43:04.208Z,16.06
2019-02-15T06:44:06.408Z,16.07
2019-02-15T06:45:08.732Z,16.07
2019-02-15T06:46:10.965Z,16.07
2019-02-15T06:47:13.161Z,16.06
2019-02-15T06:48:15.545Z,16.06
2019-02-15T06:49:17.683Z,16.05
2019-02-15T06:50:19.925Z,16.06
2019-02-15T06:51:22.136Z,16.05
2019-02-15T06:52:24.341Z,16.05
2019-02-15T06:53:26.583Z,16.04
2019-02-15T06:54:28.820Z,16.02
2019-02-15T06:55:30.952Z,16.02
2019-02-15T06:56:33.165Z,16.01
2019-02-15T06:57:35.371Z,16.00
2019-02-15T06:58:45.720Z,16.01
2019-02-15T07:00:06.401Z,16.00
2019-02-15T07:01:19.354Z,16.00
2019-02-15T07:02:46.793Z,16.00
2019-02-15T07:04:06.611Z,16.00
2019-02-15T07:05:16.646Z,15.99
2019-02-15T07:06:18.865Z,15.98
2019-02-15T07:07:21.070Z,15.98
2019-02-15T07:08:23.279Z,15.98
2019-02-15T07:09:25.561Z,15.98
2019-02-15T07:10:27.835Z,15.97
2019-02-15T07:11:30.079Z,15.97
2019-02-15T07:12:34.115Z,15.97
2019-02-15T07:13:36.313Z,15.96
2019-02-15T07:14:38.579Z,15.96
2019-02-15T07:15:40.796Z,15.96
2019-02-15T07:16:42.995Z,15.95
2019-02-15T07:17:45.202Z,15.95
2019-02-15T07:18:47.405Z,15.94
2019-02-15T07:19:49.652Z,15.95
2019-02-15T07:20:54.903Z,15.95
2019-02-15T07:21:57.127Z,15.93
2019-02-15T07:22:59.331Z,15.94
2019-02-15T07:24:01.538Z,15.94
2019-02-15T07:25:03.758Z,15.93
2019-02-15T07:26:05.961Z,15.93
2019-02-15T07:27:08.189Z,15.93
2019-02-15T07:28:10.499Z,15.92
2019-02-15T07:29:12.725Z,15.91
2019-02-15T07:30:15.672Z,15.91
2019-02-15T07:31:18.052Z,15.90
2019-02-15T07:32:20.262Z,15.90
2019-02-15T07:33:22.471Z,15.88
2019-02-15T07:34:24.693Z,15.88
2019-02-15T07:35:26.926Z,15.87
2019-02-15T07:36:29.224Z,15.88
2019-02-15T07:37:31.478Z,15.87
2019-02-15T07:38:33.710Z,15.87
2019-02-15T07:39:35.912Z,15.86
2019-02-15T07:40:38.169Z,15.85
2019-02-15T07:41:40.373Z,15.85
2019-02-15T07:42:42.573Z,15.86
2019-02-15T07:43:44.805Z,15.85
2019-02-15T07:44:46.990Z,15.85
2019-02-15T07:45:49.393Z,15.85
2019-02-15T07:46:51.705Z,15.84
2019-02-15T07:47:53.990Z,15.85
2019-02-15T07:48:59.031Z,15.84
2019-02-15T07:50:01.260Z,15.83
2019-02-15T07:51:09.286Z,15.83
2019-02-15T07:52:07.457Z,15.83
2019-02-15T07:53:09.667Z,15.83
2019-02-15T07:54:11.887Z,15.83
2019-02-15T07:55:14.104Z,15.82
2019-02-15T07:56:16.373Z,15.82
2019-02-15T07:57:18.613Z,15.82
2019-02-15T07:58:20.818Z,15.81
2019-02-15T07:59:23.032Z,15.82
2019-02-15T08:00:25.406Z,15.81
2019-02-15T08:01:27.559Z,15.82
2019-02-15T08:02:29.765Z,15.82
2019-02-15T08:03:31.971Z,15.81
2019-02-15T08:04:34.190Z,15.81
2019-02-15T08:05:36.513Z,15.82
2019-02-15T08:06:38.754Z,15.82
2019-02-15T08:07:40.994Z,15.81
2019-02-15T08:08:43.194Z,15.82
2019-02-15T08:09:45.508Z,15.82
2019-02-15T08:10:48.132Z,15.83
2019-02-15T08:11:50.333Z,15.85
2019-02-15T08:12:52.688Z,15.85
2019-02-15T08:13:54.907Z,15.88
2019-02-15T08:14:57.118Z,15.89
2019-02-15T08:15:59.403Z,15.93
2019-02-15T08:17:01.578Z,15.95
2019-02-15T08:18:03.794Z,15.98
2019-02-15T08:19:05.994Z,15.99
2019-02-15T08:20:08.195Z,16.01
2019-02-15T08:21:15.232Z,16.04
2019-02-15T08:22:17.146Z,16.07
2019-02-15T08:23:19.680Z,16.11
2019-02-15T08:24:21.895Z,16.14
2019-02-15T08:25:24.098Z,16.15
2019-02-15T08:26:26.295Z,16.17
2019-02-15T08:27:28.541Z,16.19
2019-02-15T08:28:30.758Z,16.22
2019-02-15T08:29:33.081Z,16.23
2019-02-15T08:30:35.281Z,16.25
2019-02-15T08:31:37.494Z,16.25
2019-02-15T08:32:39.701Z,16.26
2019-02-15T08:33:41.908Z,16.28
2019-02-15T08:34:44.132Z,16.28
2019-02-15T08:35:46.314Z,16.28
2019-02-15T08:36:48.585Z,16.28
2019-02-15T08:37:50.750Z,16.28
2019-02-15T08:38:52.891Z,16.28
2019-02-15T08:39:55.091Z,16.28
2019-02-15T08:40:57.288Z,16.27
2019-02-15T08:42:03.851Z,16.26
2019-02-15T08:43:03.411Z,16.26
2019-02-15T08:44:05.619Z,16.27
2019-02-15T08:45:07.804Z,16.27
2019-02-15T08:46:10.014Z,16.26
2019-02-15T08:47:12.216Z,16.24
2019-02-15T08:48:15.626Z,16.24
2019-02-15T08:49:17.841Z,16.22
2019-02-15T08:50:20.062Z,16.21
2019-02-15T08:51:22.267Z,16.21
2019-02-15T08:52:24.678Z,16.21
2019-02-15T08:53:26.904Z,16.18
2019-02-15T08:54:29.115Z,16.18
2019-02-15T08:55:31.407Z,16.17
2019-02-15T08:56:33.527Z,16.17
2019-02-15T08:57:35.744Z,16.18
2019-02-15T08:58:37.985Z,16.17
2019-02-15T08:59:41.627Z,16.16
2019-02-15T09:00:43.809Z,16.16
2019-02-15T09:01:59.967Z,16.14
2019-02-15T09:03:02.167Z,16.15
2019-02-15T09:04:04.394Z,16.14
2019-02-15T09:05:06.598Z,16.14
2019-02-15T09:06:08.825Z,16.13
2019-02-15T09:07:11.044Z,16.13
2019-02-15T09:08:16.249Z,16.13
2019-02-15T09:09:18.453Z,16.12
2019-02-15T09:10:20.667Z,16.11
2019-02-15T09:11:22.905Z,16.10
2019-02-15T09:12:25.117Z,16.10
2019-02-15T09:13:27.340Z,16.10
2019-02-15T09:14:29.559Z,16.10
2019-02-15T09:15:32.839Z,16.08
2019-02-15T09:16:35.038Z,16.09
2019-02-15T09:17:37.249Z,16.09
2019-02-15T09:18:41.304Z,16.08
2019-02-15T09:19:43.528Z,16.09
2019-02-15T09:20:45.791Z,16.08
2019-02-15T09:21:48.121Z,16.08
2019-02-15T09:22:50.410Z,16.08
2019-02-15T09:23:52.690Z,16.07
2019-02-15T09:24:54.943Z,16.07
2019-02-15T09:25:57.157Z,16.07
2019-02-15T09:27:01.892Z,16.07
2019-02-15T09:28:24.571Z,16.07
2019-02-15T09:29:26.841Z,16.06
2019-02-15T09:30:29.168Z,16.06
2019-02-15T09:31:31.363Z,16.06
2019-02-15T09:32:33.571Z,16.05
2019-02-15T09:33:35.773Z,16.06
2019-02-15T09:34:38.043Z,16.06
2019-02-15T09:35:40.247Z,16.05
2019-02-15T09:36:42.459Z,16.06
2019-02-15T09:37:44.700Z,16.05
2019-02-15T09:38:47.039Z,16.07
2019-02-15T09:39:49.523Z,16.06
2019-02-15T09:40:51.839Z,16.06
2019-02-15T09:41:54.222Z,16.05
2019-02-15T09:42:56.449Z,16.06
2019-02-15T09:43:58.647Z,16.06
2019-02-15T09:45:00.890Z,16.06
2019-02-15T09:46:03.171Z,16.04
2019-02-15T09:47:05.519Z,16.04
2019-02-15T09:48:07.706Z,16.04
2019-02-15T09:49:09.917Z,16.04
2019-02-15T09:50:12.508Z,16.05
2019-02-15T09:51:14.743Z,16.04
2019-02-15T09:52:17.036Z,16.05
2019-02-15T09:53:19.254Z,16.04
2019-02-15T09:54:21.449Z,16.03
2019-02-15T09:55:23.605Z,16.03
2019-02-15T09:56:25.833Z,16.05
2019-02-15T09:57:28.082Z,16.03
2019-02-15T09:58:30.240Z,16.03
2019-02-15T09:59:35.539Z,16.02
2019-02-15T10:00:37.803Z,16.03
2019-02-15T10:01:40.016Z,16.04
2019-02-15T10:02:42.235Z,16.03
2019-02-15T10:03:44.489Z,16.03
2019-02-15T10:04:46.696Z,16.03
2019-02-15T10:05:49.025Z,16.03
2019-02-15T10:06:51.246Z,16.03
2019-02-15T10:07:53.639Z,16.03
2019-02-15T10:08:55.862Z,16.03
2019-02-15T10:09:58.059Z,16.03
2019-02-15T10:11:00.294Z,16.03
2019-02-15T10:12:02.507Z,16.03
2019-02-15T10:13:04.729Z,16.02
2019-02-15T10:14:07.011Z,16.02
2019-02-15T10:15:09.233Z,16.02
2019-02-15T10:16:11.487Z,16.03
2019-02-15T10:17:16.911Z,16.02
2019-02-15T10:18:19.119Z,16.03
2019-02-15T10:19:22.630Z,16.04
2019-02-15T10:20:25.033Z,16.03
2019-02-15T10:21:27.215Z,16.04
2019-02-15T10:22:29.425Z,16.03
2019-02-15T10:23:31.617Z,16.03
2019-02-15T10:24:33.831Z,16.04
2019-02-15T10:25:36.116Z,16.04
2019-02-15T10:26:38.298Z,16.04
2019-02-15T10:27:40.555Z,16.07
2019-02-15T10:28:42.712Z,16.07
2019-02-15T10:29:44.912Z,16.09
2019-02-15T10:30:47.129Z,16.11
2019-02-15T10:31:49.395Z,16.14
2019-02-15T10:32:51.585Z,16.15
2019-02-15T10:33:53.791Z,16.18
2019-02-15T10:34:55.991Z,16.18
2019-02-15T10:35:58.217Z,16.23
2019-02-15T10:37:03.232Z,16.24
2019-02-15T10:38:05.434Z,16.26
2019-02-15T10:39:07.645Z,16.28
2019-02-15T10:40:09.871Z,16.29
2019-02-15T10:41:12.076Z,16.30
2019-02-15T10:42:14.335Z,16.31
2019-02-15T10:43:16.548Z,16.32
2019-02-15T10:44:18.756Z,16.33
2019-02-15T10:45:20.975Z,16.34
2019-02-15T10:46:23.214Z,16.34
2019-02-15T10:47:25.565Z,16.35
2019-02-15T10:48:27.873Z,16.36
2019-02-15T10:49:31.647Z,16.36
2019-02-15T10:50:33.869Z,16.36
2019-02-15T10:51:36.074Z,16.36
2019-02-15T10:52:38.689Z,16.36
2019-02-15T10:53:40.854Z,16.36
2019-02-15T10:54:42.984Z,16.36
2019-02-15T10:55:45.211Z,16.36
2019-02-15T10:56:47.391Z,16.36
2019-02-15T10:57:49.637Z,16.36
2019-02-15T10:58:51.836Z,16.36
2019-02-15T10:59:54.049Z,16.35
2019-02-15T11:00:56.255Z,16.35
2019-02-15T11:01:58.480Z,16.34
2019-02-15T11:03:00.702Z,16.35
2019-02-15T11:04:02.913Z,16.35
2019-02-15T11:05:05.105Z,16.34
2019-02-15T11:06:07.299Z,16.34
2019-02-15T11:07:09.513Z,16.34
2019-02-15T11:08:11.859Z,16.32
2019-02-15T11:09:14.068Z,16.32
2019-02-15T11:10:16.270Z,16.33
2019-02-15T11:11:18.482Z,16.33
2019-02-15T11:12:20.688Z,16.32
2019-02-15T11:13:22.926Z,16.32
2019-02-15T11:14:25.130Z,16.31
2019-02-15T11:15:27.428Z,16.31
2019-02-15T11:16:29.668Z,16.30
2019-02-15T11:17:31.873Z,16.30
2019-02-15T11:18:34.101Z,16.31
2019-02-15T11:19:36.308Z,16.30
2019-02-15T11:20:38.530Z,16.30
2019-02-15T11:21:40.732Z,16.29
2019-02-15T11:22:42.945Z,16.29
2019-02-15T11:23:45.171Z,16.29
2019-02-15T11:24:47.377Z,16.29
2019-02-15T11:25:49.582Z,16.29
2019-02-15T11:26:51.801Z,16.28
2019-02-15T11:27:54.060Z,16.29
2019-02-15T11:28:56.235Z,16.28
2019-02-15T11:29:58.548Z,16.28
2019-02-15T11:31:00.761Z,16.27
2019-02-15T11:32:03.077Z,16.27
2019-02-15T11:33:05.348Z,16.27
2019-02-15T11:34:07.561Z,16.27
2019-02-15T11:35:09.764Z,16.26
2019-02-15T11:36:11.977Z,16.27
2019-02-15T11:37:14.203Z,16.27
2019-02-15T11:38:16.422Z,16.25
2019-02-15T11:39:18.651Z,16.26
2019-02-15T11:40:20.871Z,16.26
2019-02-15T11:41:23.082Z,16.26
2019-02-15T11:42:25.311Z,16.26
2019-02-15T11:43:27.537Z,16.26
2019-02-15T11:44:29.825Z,16.25
2019-02-15T11:45:32.018Z,16.25
2019-02-15T11:46:34.221Z,16.25
2019-02-15T11:47:36.439Z,16.27
2019-02-15T11:48:38.667Z,16.26
2019-02-15T11:49:40.888Z,16.26
2019-02-15T11:50:43.103Z,16.25
2019-02-15T11:51:45.308Z,16.26
2019-02-15T11:52:47.520Z,16.23
2019-02-15T11:53:49.776Z,16.24
2019-02-15T11:54:52.025Z,16.25
2019-02-15T11:55:54.240Z,16.24
2019-02-15T11:56:56.440Z,16.24
2019-02-15T11:57:58.630Z,16.26
2019-02-15T11:59:00.867Z,16.24
2019-02-15T12:00:03.386Z,16.25
2019-02-15T12:01:06.359Z,16.24
2019-02-15T12:02:08.565Z,16.25
2019-02-15T12:03:10.783Z,16.24
2019-02-15T12:04:13.011Z,16.25
2019-02-15T12:05:17.034Z,16.24
2019-02-15T12:06:19.236Z,16.24
2019-02-15T12:07:21.439Z,16.24
2019-02-15T12:08:23.644Z,16.24
2019-02-15T12:09:25.878Z,16.24
2019-02-15T12:10:28.104Z,16.24
2019-02-15T12:11:30.305Z,16.24
2019-02-15T12:12:32.613Z,16.24
2019-02-15T12:13:34.852Z,16.24
2019-02-15T12:14:37.035Z,16.25
2019-02-15T12:15:39.353Z,16.24
2019-02-15T12:16:41.569Z,16.25
2019-02-15T12:17:43.761Z,16.26
2019-02-15T12:18:46.035Z,16.25
2019-02-15T12:19:48.297Z,16.24
2019-02-15T12:20:52.225Z,16.24
2019-02-15T12:21:54.390Z,16.25
2019-02-15T12:22:56.570Z,16.24
2019-02-15T12:23:58.805Z,16.25
2019-02-15T12:25:01.210Z,16.24
2019-02-15T12:26:03.344Z,16.24
2019-02-15T12:27:08.049Z,16.25
2019-02-15T12:28:10.271Z,16.25
2019-02-15T12:29:12.486Z,16.26
2019-02-15T12:30:14.692Z,16.25
2019-02-15T12:31:16.931Z,16.25
2019-02-15T12:32:19.152Z,16.26
2019-02-15T12:33:21.377Z,16.26
2019-02-15T12:34:23.613Z,16.25
2019-02-15T12:35:25.837Z,16.26
2019-02-15T12:36:28.056Z,16.25
2019-02-15T12:37:30.301Z,16.24
2019-02-15T12:38:32.437Z,16.24
2019-02-15T12:39:34.672Z,16.24
2019-02-15T12:40:36.878Z,16.26
2019-02-15T12:41:39.085Z,16.25
2019-02-15T12:42:41.304Z,16.26
2019-02-15T12:43:43.504Z,16.27
2019-02-15T12:44:45.747Z,16.27
2019-02-15T12:45:47.979Z,16.26
2019-02-15T12:46:50.159Z,16.26
2019-02-15T12:47:52.372Z,16.24
2019-02-15T12:48:54.558Z,16.26
2019-02-15T12:49:56.809Z,16.25
2019-02-15T12:50:59.027Z,16.25
2019-02-15T12:52:01.225Z,16.26
2019-02-15T12:53:03.437Z,16.26
2019-02-15T12:54:05.640Z,16.24
2019-02-15T12:55:07.893Z,16.25
2019-02-15T12:56:10.111Z,16.25
2019-02-15T12:57:12.328Z,16.25
2019-02-15T12:58:14.528Z,16.27
2019-02-15T12:59:16.737Z,16.25
2019-02-15T13:00:19.061Z,16.25
2019-02-15T13:01:21.292Z,16.26
2019-02-15T13:02:23.497Z,16.25
2019-02-15T13:03:25.763Z,16.26
2019-02-15T13:04:28.017Z,16.26
2019-02-15T13:05:33.279Z,16.26
2019-02-15T13:06:35.501Z,16.25
2019-02-15T13:07:37.723Z,16.26
2019-02-15T13:08:39.938Z,16.26
2019-02-15T13:09:42.356Z,16.26
2019-02-15T13:10:44.654Z,16.26
2019-02-15T13:11:46.917Z,16.26
2019-02-15T13:12:49.061Z,16.27
2019-02-15T13:13:51.294Z,16.27
2019-02-15T13:14:53.502Z,16.27
2019-02-15T13:15:55.730Z,16.27
2019-02-15T13:16:57.929Z,16.26
2019-02-15T13:18:00.134Z,16.26
2019-02-15T13:19:02.449Z,16.26
2019-02-15T13:20:04.660Z,16.25
2019-02-15T13:21:06.887Z,16.26
2019-02-15T13:22:09.167Z,16.26
2019-02-15T13:23:11.390Z,16.27
2019-02-15T13:24:13.606Z,16.26
2019-02-15T13:25:15.813Z,16.27
2019-02-15T13:26:18.102Z,16.26
2019-02-15T13:27:22.510Z,16.27
2019-02-15T13:28:24.211Z,16.26
2019-02-15T13:29:26.414Z,16.26
2019-02-15T13:30:28.657Z,16.26
2019-02-15T13:31:30.902Z,16.27
2019-02-15T13:32:33.114Z,16.26
2019-02-15T13:33:38.118Z,16.27
2019-02-15T13:34:40.375Z,16.26
2019-02-15T13:35:42.563Z,16.27
2019-02-15T13:36:44.791Z,16.27
2019-02-15T13:37:47.013Z,16.26
2019-02-15T13:38:49.203Z,16.25